createdAt,value
2018-11-06T00:00:19.482Z,13.47
2018-11-06T00:02:53.162Z,12.90
2018-11-06T00:05:22.982Z,13.60
2018-11-06T00:07:52.303Z,13.77
2018-11-06T00:10:21.563Z,13.40
2018-11-06T00:12:50.922Z,13.37
2018-11-06T00:15:20.302Z,13.00
2018-11-06T00:17:49.682Z,13.50
2018-11-06T00:20:18.965Z,13.00
2018-11-06T00:22:48.324Z,13.97
2018-11-06T00:25:17.664Z,12.80
2018-11-06T00:27:46.923Z,13.97
2018-11-06T00:30:16.762Z,14.40
2018-11-06T00:32:46.382Z,14.33
2018-11-06T00:35:15.762Z,13.43
2018-11-06T00:37:45.725Z,14.47
2018-11-06T00:40:15.046Z,13.17
2018-11-06T00:42:44.302Z,14.63
2018-11-06T00:45:14.843Z,14.27
2018-11-06T00:47:44.188Z,13.80
2018-11-06T00:50:14.425Z,14.07
2018-11-06T00:52:44.527Z,14.43
2018-11-06T00:55:13.862Z,13.77
2018-11-06T00:57:44.142Z,13.80
2018-11-06T01:00:15.723Z,13.47
2018-11-06T01:02:45.382Z,13.40
2018-11-06T01:05:15.644Z,13.37
2018-11-06T01:07:47.224Z,14.43
2018-11-06T01:10:16.749Z,13.30
2018-11-06T01:12:46.046Z,12.83
2018-11-06T01:15:16.522Z,14.17
2018-11-06T01:17:46.827Z,13.57
2018-11-06T01:20:17.722Z,13.97
2018-11-06T01:22:47.341Z,14.23
2018-11-06T01:25:17.039Z,14.07
2018-11-06T01:27:46.402Z,13.50
2018-11-06T01:30:18.362Z,13.97
2018-11-06T01:32:48.001Z,14.97
2018-11-06T01:35:17.722Z,14.53
2018-11-06T01:37:47.190Z,13.93
2018-11-06T01:40:17.782Z,14.17
2018-11-06T01:42:47.751Z,14.20
2018-11-06T01:45:17.807Z,14.37
2018-11-06T01:47:47.161Z,13.83
2018-11-06T01:50:17.651Z,14.37
2018-11-06T01:52:47.802Z,13.67
2018-11-06T01:55:17.182Z,13.30
2018-11-06T01:57:46.502Z,13.37
2018-11-06T02:00:18.363Z,14.00
2018-11-06T02:02:48.122Z,13.93
2018-11-06T02:05:18.562Z,13.53
2018-11-06T02:07:48.943Z,13.70
2018-11-06T02:10:18.682Z,14.03
2018-11-06T02:12:48.223Z,13.73
2018-11-06T02:15:17.542Z,13.70
2018-11-06T02:17:46.906Z,13.40
2018-11-06T02:20:16.722Z,13.47
2018-11-06T02:22:46.462Z,13.03
2018-11-06T02:25:16.262Z,14.73
2018-11-06T02:27:45.682Z,15.30
2018-11-06T02:30:16.123Z,14.37
2018-11-06T02:32:46.210Z,14.50
2018-11-06T02:35:15.882Z,13.73
2018-11-06T02:37:45.141Z,13.97
2018-11-06T02:40:15.482Z,13.40
2018-11-06T02:42:44.992Z,14.20
2018-11-06T02:45:14.766Z,13.97
2018-11-06T02:47:44.395Z,14.67
2018-11-06T02:50:14.502Z,14.77
2018-11-06T02:52:44.502Z,13.87
2018-11-06T02:55:14.103Z,12.87
2018-11-06T02:57:43.482Z,14.13
2018-11-06T03:00:14.982Z,14.97
2018-11-06T03:02:45.541Z,14.73
2018-11-06T03:05:14.864Z,14.63
2018-11-06T03:07:44.122Z,15.63
2018-11-06T03:10:14.176Z,15.37
2018-11-06T03:12:44.271Z,14.90
2018-11-06T03:15:14.443Z,15.10
2018-11-06T03:17:43.802Z,14.00
2018-11-06T03:20:13.843Z,14.67
2018-11-06T03:22:43.702Z,14.30
2018-11-06T03:25:13.068Z,14.33
2018-11-06T03:27:42.362Z,14.13
2018-11-06T03:30:13.945Z,14.07
2018-11-06T03:32:43.349Z,15.10
2018-11-06T03:35:13.510Z,14.33
2018-11-06T03:37:42.882Z,14.87
2018-11-06T03:40:12.665Z,14.50
2018-11-06T03:42:42.781Z,14.13
2018-11-06T03:45:13.202Z,13.80
2018-11-06T03:47:42.468Z,14.40
2018-11-06T03:50:12.863Z,13.93
2018-11-06T03:52:42.202Z,14.40
2018-11-06T03:55:11.502Z,13.43
2018-11-06T03:57:40.942Z,14.30
2018-11-06T04:00:13.223Z,14.97
2018-11-06T04:02:43.387Z,14.03
2018-11-06T04:05:12.994Z,14.07
2018-11-06T04:07:42.250Z,14.20
2018-11-06T04:10:12.266Z,14.23
2018-11-06T04:12:42.064Z,14.43
2018-11-06T04:15:13.082Z,14.57
2018-11-06T04:17:43.282Z,14.13
2018-11-06T04:20:12.626Z,15.33
2018-11-06T04:22:42.642Z,13.50
2018-11-06T04:25:12.005Z,14.70
2018-11-06T04:27:41.302Z,15.00
2018-11-06T04:30:12.935Z,15.30
2018-11-06T04:32:42.982Z,14.77
2018-11-06T04:35:12.843Z,14.50
2018-11-06T04:37:42.422Z,16.00
2018-11-06T04:40:13.144Z,15.53
2018-11-06T04:42:42.583Z,13.83
2018-11-06T04:45:12.782Z,13.60
2018-11-06T04:47:42.444Z,15.10
2018-11-06T04:50:13.126Z,15.17
2018-11-06T04:52:42.603Z,14.80
2018-11-06T04:55:12.916Z,16.00
2018-11-06T04:57:42.762Z,15.03
2018-11-06T05:00:14.864Z,12.97
2018-11-06T05:02:44.406Z,14.70
2018-11-06T05:05:14.023Z,14.83
2018-11-06T05:07:43.342Z,14.33
2018-11-06T05:10:14.543Z,15.27
2018-11-06T05:12:44.262Z,15.40
2018-11-06T05:15:14.923Z,15.47
2018-11-06T05:17:44.332Z,15.73
2018-11-06T05:20:16.474Z,16.17
2018-11-06T05:22:46.782Z,14.87
2018-11-06T05:25:16.349Z,16.00
2018-11-06T05:27:45.642Z,15.87
2018-11-06T05:30:14.945Z,15.77
2018-11-06T05:32:44.985Z,16.03
2018-11-06T05:35:14.383Z,18.23
2018-11-06T05:37:43.663Z,16.87
2018-11-06T05:40:29.622Z,16.10
2018-11-06T05:42:58.922Z,16.77
2018-11-06T05:45:28.211Z,17.10
2018-11-06T05:47:57.643Z,17.37
2018-11-06T05:50:27.263Z,18.47
2018-11-06T05:52:56.987Z,18.10
2018-11-06T05:55:26.362Z,18.50
2018-11-06T05:57:55.622Z,17.33
2018-11-06T06:00:25.062Z,18.63
2018-11-06T06:02:54.343Z,17.83
2018-11-06T06:05:23.702Z,17.97
2018-11-06T06:07:53.003Z,18.93
2018-11-06T06:10:22.362Z,19.07
2018-11-06T06:12:51.843Z,21.80
2018-11-06T06:15:21.243Z,19.73
2018-11-06T06:17:50.702Z,21.80
2018-11-06T06:20:20.030Z,17.47
2018-11-06T06:22:49.322Z,21.47
2018-11-06T06:25:18.622Z,21.87
2018-11-06T06:27:48.242Z,20.23
2018-11-06T06:30:18.042Z,20.40
2018-11-06T06:32:47.403Z,21.27
2018-11-06T06:35:16.819Z,21.70
2018-11-06T06:37:46.042Z,21.27
2018-11-06T06:40:16.437Z,21.53
2018-11-06T06:42:46.482Z,22.97
2018-11-06T06:45:17.542Z,21.97
2018-11-06T06:47:46.990Z,20.93
2018-11-06T06:50:17.928Z,20.13
2018-11-06T06:52:47.741Z,21.50
2018-11-06T06:55:17.363Z,22.10
2018-11-06T06:57:47.642Z,21.17
2018-11-06T07:00:18.241Z,21.37
2018-11-06T07:02:47.642Z,21.13
2018-11-06T07:05:18.322Z,20.77
2018-11-06T07:07:47.721Z,21.17
2018-11-06T07:10:18.362Z,20.63
2018-11-06T07:12:48.973Z,20.93
2018-11-06T07:15:20.342Z,21.07
2018-11-06T07:17:50.821Z,20.43
2018-11-06T07:20:22.604Z,20.80
2018-11-06T07:22:51.963Z,20.47
2018-11-06T07:25:21.282Z,19.87
2018-11-06T07:27:50.663Z,19.83
2018-11-06T07:30:21.422Z,19.47
2018-11-06T07:32:50.822Z,19.10
2018-11-06T07:35:20.469Z,18.70
2018-11-06T07:37:49.722Z,16.90
2018-11-06T07:40:19.950Z,17.97
2018-11-06T07:42:49.643Z,13.33
2018-11-06T07:45:20.881Z,12.97
2018-11-06T07:47:50.201Z,12.37
2018-11-06T07:50:19.705Z,12.03
2018-11-06T07:52:49.082Z,11.80
2018-11-06T07:55:19.062Z,11.40
2018-11-06T07:57:48.381Z,11.07
2018-11-06T08:00:21.541Z,10.00
2018-11-06T08:02:51.662Z,10.17
2018-11-06T08:05:21.105Z,10.03
2018-11-06T08:07:51.543Z,9.83
2018-11-06T08:10:20.922Z,9.40
2018-11-06T08:12:51.702Z,9.47
2018-11-06T08:15:21.262Z,8.53
2018-11-06T08:17:51.158Z,9.33
2018-11-06T08:20:20.493Z,9.40
2018-11-06T08:22:49.822Z,9.00
2018-11-06T08:25:19.142Z,9.10
2018-11-06T08:27:49.448Z,8.00
2018-11-06T08:30:18.742Z,8.27
2018-11-06T08:32:48.316Z,8.30
2018-11-06T08:35:18.042Z,8.70
2018-11-06T08:37:47.405Z,7.83
2018-11-06T08:40:17.741Z,8.00
2018-11-06T08:42:47.082Z,7.83
2018-11-06T08:45:16.843Z,8.00
2018-11-06T08:47:46.382Z,8.47
2018-11-06T08:50:17.263Z,8.80
2018-11-06T08:52:46.602Z,7.50
2018-11-06T08:55:16.525Z,6.90
2018-11-06T08:57:46.062Z,6.20
2018-11-06T09:00:17.144Z,6.47
2018-11-06T09:02:47.782Z,6.60
2018-11-06T09:05:17.902Z,7.03
2018-11-06T09:07:47.306Z,6.40
2018-11-06T09:10:17.002Z,6.47
2018-11-06T09:12:46.421Z,5.50
2018-11-06T09:15:16.690Z,6.10
2018-11-06T09:17:46.025Z,5.37
2018-11-06T09:20:16.441Z,6.17
2018-11-06T09:22:45.804Z,5.40
2018-11-06T09:25:16.522Z,6.00
2018-11-06T09:27:45.823Z,5.13
2018-11-06T09:30:16.502Z,5.37
2018-11-06T09:32:45.822Z,5.43
2018-11-06T09:35:15.682Z,5.10
2018-11-06T09:37:45.342Z,4.77
2018-11-06T09:40:16.902Z,4.63
2018-11-06T09:42:46.502Z,4.40
2018-11-06T09:45:16.148Z,4.27
2018-11-06T09:47:45.521Z,4.00
2018-11-06T09:50:16.281Z,4.20
2018-11-06T09:52:46.462Z,3.83
2018-11-06T09:55:16.922Z,4.27
2018-11-06T09:57:46.895Z,4.13
2018-11-06T10:00:18.065Z,3.27
2018-11-06T10:02:47.362Z,3.30
2018-11-06T10:05:17.062Z,3.50
2018-11-06T10:07:46.425Z,3.33
2018-11-06T10:10:17.423Z,3.57
2018-11-06T10:12:47.445Z,3.33
2018-11-06T10:15:18.422Z,3.20
2018-11-06T10:17:48.782Z,2.87
2018-11-06T10:20:18.861Z,2.93
2018-11-06T10:22:48.361Z,3.30
2018-11-06T10:25:17.642Z,3.47
2018-11-06T10:27:46.941Z,3.20
2018-11-06T10:30:17.681Z,3.10
2018-11-06T10:32:47.161Z,2.87
2018-11-06T10:35:16.506Z,3.40
2018-11-06T10:37:45.882Z,3.23
2018-11-06T10:40:22.841Z,3.10
2018-11-06T10:42:52.142Z,3.10
2018-11-06T10:45:21.421Z,3.20
2018-11-06T10:47:50.821Z,3.07
2018-11-06T10:50:20.061Z,3.37
2018-11-06T10:52:49.742Z,3.00
2018-11-06T10:55:19.105Z,3.03
2018-11-06T10:57:48.461Z,3.23
2018-11-06T11:00:23.382Z,3.00
2018-11-06T11:02:58.122Z,2.90
2018-11-06T11:05:28.709Z,3.13
2018-11-06T11:07:58.064Z,3.00
2018-11-06T11:10:27.402Z,2.80
2018-11-06T11:12:56.762Z,2.90
2018-11-06T11:15:26.202Z,3.00
2018-11-06T11:17:55.501Z,3.10
2018-11-06T11:20:25.122Z,2.80
2018-11-06T11:22:54.442Z,3.00
2018-11-06T11:25:23.784Z,2.73
2018-11-06T11:27:53.082Z,3.43
2018-11-06T11:30:22.462Z,2.70
2018-11-06T11:32:51.742Z,3.27
2018-11-06T11:35:21.082Z,3.27
2018-11-06T11:37:50.518Z,3.17
2018-11-06T11:40:20.101Z,3.30
2018-11-06T11:42:49.401Z,3.00
2018-11-06T11:45:18.724Z,3.10
2018-11-06T11:47:48.041Z,3.13
2018-11-06T11:50:17.402Z,2.90
2018-11-06T11:52:46.722Z,3.47
2018-11-06T11:55:16.303Z,2.97
2018-11-06T11:57:45.642Z,3.40
2018-11-06T12:00:17.266Z,3.53
2018-11-06T12:02:46.461Z,3.50
2018-11-06T12:05:15.804Z,2.97
2018-11-06T12:07:45.102Z,3.33
2018-11-06T12:10:14.763Z,3.17
2018-11-06T12:12:44.064Z,3.07
2018-11-06T12:15:15.022Z,3.47
2018-11-06T12:17:45.382Z,3.20
2018-11-06T12:20:15.327Z,3.13
2018-11-06T12:22:44.743Z,2.90
2018-11-06T12:25:14.500Z,3.10
2018-11-06T12:27:43.902Z,3.00
2018-11-06T12:30:14.844Z,3.30
2018-11-06T12:32:44.261Z,2.83
2018-11-06T12:35:14.368Z,3.00
2018-11-06T12:37:43.802Z,2.90
2018-11-06T12:40:14.202Z,3.13
2018-11-06T12:42:44.008Z,3.10
2018-11-06T12:45:14.862Z,2.97
2018-11-06T12:47:44.702Z,3.17
2018-11-06T12:50:14.230Z,2.90
2018-11-06T12:52:43.664Z,2.93
2018-11-06T12:55:14.163Z,2.63
2018-11-06T12:57:43.622Z,2.87
2018-11-06T13:00:15.183Z,2.70
2018-11-06T13:02:44.755Z,3.00
2018-11-06T13:05:14.026Z,2.70
2018-11-06T13:07:44.182Z,2.80
2018-11-06T13:10:14.222Z,3.63
2018-11-06T13:12:43.861Z,2.70
2018-11-06T13:15:13.365Z,2.90
2018-11-06T13:17:42.764Z,2.70
2018-11-06T13:20:13.481Z,2.60
2018-11-06T13:22:43.912Z,2.83
2018-11-06T13:25:13.641Z,2.30
2018-11-06T13:27:43.241Z,2.40
2018-11-06T13:30:14.382Z,2.30
2018-11-06T13:32:44.663Z,2.53
2018-11-06T13:35:14.502Z,2.20
2018-11-06T13:37:43.881Z,2.10
2018-11-06T13:40:15.074Z,2.20
2018-11-06T13:42:44.971Z,2.30
2018-11-06T13:45:22.247Z,1.93
2018-11-06T13:47:51.421Z,2.20
2018-11-06T13:50:20.842Z,1.93
2018-11-06T13:52:50.162Z,1.80
2018-11-06T13:55:19.542Z,1.97
2018-11-06T13:57:48.843Z,1.80
2018-11-06T14:00:19.861Z,2.07
2018-11-06T14:02:49.421Z,1.67
2018-11-06T14:05:19.121Z,1.60
2018-11-06T14:07:48.521Z,1.60
2018-11-06T14:10:17.942Z,1.37
2018-11-06T14:12:47.161Z,1.40
2018-11-06T14:15:16.641Z,1.00
2018-11-06T14:17:45.964Z,0.90
2018-11-06T14:20:16.182Z,1.10
2018-11-06T14:22:45.864Z,1.20
2018-11-06T14:25:15.226Z,1.30
2018-11-06T14:27:44.614Z,1.10
2018-11-06T14:30:17.845Z,1.07
2018-11-06T14:32:47.642Z,1.10
2018-11-06T14:35:17.982Z,1.10
2018-11-06T14:37:47.642Z,1.10
2018-11-06T14:40:17.301Z,1.07
2018-11-06T14:42:46.904Z,1.20
2018-11-06T14:45:17.562Z,1.20
2018-11-06T14:47:46.916Z,1.10
2018-11-06T14:50:16.282Z,1.20
2018-11-06T14:52:45.805Z,1.23
2018-11-06T14:55:16.044Z,1.30
2018-11-06T14:57:45.422Z,1.20
2018-11-06T15:00:16.783Z,2.00
2018-11-06T15:02:48.841Z,1.23
2018-11-06T15:05:18.835Z,1.23
2018-11-06T15:07:48.224Z,1.30
2018-11-06T15:10:17.641Z,1.40
2018-11-06T15:12:47.161Z,1.30
2018-11-06T15:15:17.082Z,1.10
2018-11-06T15:17:47.169Z,1.87
2018-11-06T15:20:18.063Z,1.30
2018-11-06T15:22:47.702Z,1.60
2018-11-06T15:25:17.863Z,1.20
2018-11-06T15:27:47.122Z,1.10
2018-11-06T15:30:17.628Z,1.07
2018-11-06T15:32:47.219Z,1.67
2018-11-06T15:35:18.044Z,1.20
2018-11-06T15:37:47.404Z,1.37
2018-11-06T15:40:18.083Z,1.60
2018-11-06T15:42:47.404Z,1.23
2018-11-06T15:45:17.705Z,1.50
2018-11-06T15:47:47.640Z,1.40
2018-11-06T15:50:17.977Z,1.50
2018-11-06T15:52:48.301Z,1.47
2018-11-06T15:55:17.819Z,1.43
2018-11-06T15:57:47.018Z,1.70
2018-11-06T16:00:19.477Z,1.60
2018-11-06T16:02:49.085Z,1.70
2018-11-06T16:05:18.438Z,1.50
2018-11-06T16:07:48.278Z,1.40
2018-11-06T16:10:19.692Z,1.53
2018-11-06T16:12:49.446Z,1.77
2018-11-06T16:15:18.835Z,1.80
2018-11-06T16:17:48.373Z,1.77
2018-11-06T16:20:19.140Z,1.80
2018-11-06T16:22:48.509Z,1.30
2018-11-06T16:25:18.950Z,1.70
2018-11-06T16:27:48.470Z,1.70
2018-11-06T16:30:19.911Z,1.50
2018-11-06T16:32:49.306Z,1.43
2018-11-06T16:35:21.120Z,1.60
2018-11-06T16:37:50.381Z,1.30
2018-11-06T16:40:20.559Z,1.50
2018-11-06T16:42:50.298Z,1.53
2018-11-06T16:45:22.853Z,1.93
2018-11-06T16:47:52.740Z,1.90
2018-11-06T16:50:22.418Z,1.80
2018-11-06T16:52:51.833Z,1.60
2018-11-06T16:55:21.318Z,1.90
2018-11-06T16:57:50.613Z,1.90
2018-11-06T17:00:21.915Z,1.70
2018-11-06T17:02:51.501Z,1.90
2018-11-06T17:05:20.893Z,2.13
2018-11-06T17:07:50.465Z,1.97
2018-11-06T17:10:20.245Z,2.03
2018-11-06T17:12:49.588Z,2.20
2018-11-06T17:15:20.388Z,2.30
2018-11-06T17:17:51.125Z,2.60
2018-11-06T17:20:21.000Z,2.57
2018-11-06T17:22:50.380Z,2.40
2018-11-06T17:25:21.228Z,2.43
2018-11-06T17:27:50.560Z,2.43
2018-11-06T17:30:20.339Z,2.33
2018-11-06T17:32:49.690Z,2.57
2018-11-06T17:35:20.162Z,2.70
2018-11-06T17:37:49.500Z,2.73
2018-11-06T17:40:20.584Z,2.67
2018-11-06T17:42:49.860Z,2.67
2018-11-06T17:45:20.876Z,2.43
2018-11-06T17:47:50.235Z,2.90
2018-11-06T17:50:19.602Z,2.80
2018-11-06T17:52:49.003Z,2.80
2018-11-06T17:55:19.762Z,2.63
2018-11-06T17:57:49.080Z,3.03
2018-11-06T18:00:21.346Z,3.20
2018-11-06T18:02:50.642Z,3.13
2018-11-06T18:05:21.646Z,2.77
2018-11-06T18:07:51.000Z,3.03
2018-11-06T18:10:20.894Z,2.80
2018-11-06T18:12:50.360Z,3.07
2018-11-06T18:15:19.661Z,3.27
2018-11-06T18:17:49.138Z,2.87
2018-11-06T18:20:18.640Z,2.83
2018-11-06T18:22:47.980Z,2.83
2018-11-06T18:25:17.320Z,3.07
2018-11-06T18:27:46.600Z,3.63
2018-11-06T18:30:17.441Z,3.13
2018-11-06T18:32:46.780Z,3.30
2018-11-06T18:35:17.280Z,3.10
2018-11-06T18:37:46.705Z,3.40
2018-11-06T18:40:18.181Z,3.50
2018-11-06T18:42:48.700Z,2.93
2018-11-06T18:45:18.100Z,3.03
2018-11-06T18:47:47.516Z,3.10
2018-11-06T18:50:18.060Z,3.03
2018-11-06T18:52:48.600Z,3.30
2018-11-06T18:55:17.946Z,4.03
2018-11-06T18:57:47.215Z,3.70
2018-11-06T19:00:17.960Z,3.73
2018-11-06T19:02:49.160Z,3.17
2018-11-06T19:05:19.405Z,3.40
2018-11-06T19:07:48.881Z,3.00
2018-11-06T19:10:19.320Z,3.30
2018-11-06T19:12:48.740Z,3.37
2018-11-06T19:15:19.500Z,3.37
2018-11-06T19:17:49.266Z,3.40
2018-11-06T19:20:18.548Z,3.27
2018-11-06T19:22:47.980Z,3.30
2018-11-06T19:25:17.345Z,2.97
2018-11-06T19:27:46.700Z,3.20
2018-11-06T19:30:18.095Z,3.47
2018-11-06T19:32:47.761Z,3.13
2018-11-06T19:35:17.441Z,3.10
2018-11-06T19:37:46.824Z,3.17
2018-11-06T19:40:17.110Z,3.23
2018-11-06T19:42:47.140Z,3.13
2018-11-06T19:45:16.523Z,3.17
2018-11-06T19:47:45.860Z,2.73
2018-11-06T19:50:16.663Z,3.23
2018-11-06T19:52:46.035Z,3.30
2018-11-06T19:55:16.501Z,3.70
2018-11-06T19:57:46.060Z,3.07
2018-11-06T20:00:19.262Z,3.20
2018-11-06T20:02:50.096Z,2.93
2018-11-06T20:05:20.257Z,3.07
2018-11-06T20:07:51.780Z,3.00
2018-11-06T20:10:24.681Z,3.47
2018-11-06T20:12:54.987Z,3.30
2018-11-06T20:15:26.461Z,3.77
2018-11-06T20:17:56.307Z,3.40
2018-11-06T20:20:28.140Z,3.50
2018-11-06T20:22:57.808Z,3.57
2018-11-06T20:25:27.440Z,3.73
2018-11-06T20:27:57.140Z,3.63
2018-11-06T20:30:27.600Z,3.77
2018-11-06T20:32:57.558Z,3.53
2018-11-06T20:35:26.942Z,3.77
2018-11-06T20:37:56.352Z,3.73
2018-11-06T20:40:26.550Z,4.00
2018-11-06T20:42:56.139Z,3.87
2018-11-06T20:45:25.430Z,4.00
2018-11-06T20:47:54.891Z,4.23
2018-11-06T20:50:25.070Z,3.87
2018-11-06T20:52:54.426Z,3.77
2018-11-06T20:55:24.160Z,3.87
2018-11-06T20:57:53.583Z,4.03
2018-11-06T21:00:24.269Z,4.07
2018-11-06T21:02:54.829Z,4.60
2018-11-06T21:05:24.251Z,4.00
2018-11-06T21:07:53.631Z,4.27
2018-11-06T21:10:24.510Z,4.40
2018-11-06T21:12:53.831Z,4.70
2018-11-06T21:15:23.166Z,4.80
2018-11-06T21:17:52.518Z,4.43
2018-11-06T21:20:21.970Z,4.80
2018-11-06T21:22:51.343Z,5.07
2018-11-06T21:25:20.888Z,4.90
2018-11-06T21:27:50.343Z,5.10
2018-11-06T21:30:20.844Z,4.83
2018-11-06T21:32:51.683Z,5.53
2018-11-06T21:35:21.015Z,4.90
2018-11-06T21:37:50.483Z,5.43
2018-11-06T21:40:20.905Z,5.20
2018-11-06T21:42:50.968Z,5.23
2018-11-06T21:45:20.336Z,5.40
2018-11-06T21:47:50.825Z,5.70
2018-11-06T21:50:20.564Z,5.47
2018-11-06T21:52:49.885Z,5.13
2018-11-06T21:55:19.483Z,5.30
2018-11-06T21:57:48.803Z,5.67
2018-11-06T22:00:19.471Z,5.90
2018-11-06T22:02:49.005Z,6.33
2018-11-06T22:05:19.483Z,6.20
2018-11-06T22:07:49.603Z,6.27
2018-11-06T22:10:20.246Z,5.87
2018-11-06T22:12:49.986Z,5.67
2018-11-06T22:15:19.886Z,6.33
2018-11-06T22:17:49.443Z,6.00
2018-11-06T22:20:19.603Z,6.00
2018-11-06T22:22:49.423Z,5.90
2018-11-06T22:25:18.723Z,6.47
2018-11-06T22:27:48.042Z,6.00
2018-11-06T22:30:17.743Z,6.17
2018-11-06T22:32:47.408Z,6.90
2018-11-06T22:35:17.665Z,6.57
2018-11-06T22:37:47.118Z,6.77
2018-11-06T22:40:17.384Z,6.43
2018-11-06T22:42:46.922Z,7.77
2018-11-06T22:45:17.225Z,6.90
2018-11-06T22:47:46.483Z,7.30
2018-11-06T22:50:17.083Z,8.23
2018-11-06T22:52:47.343Z,7.53
2018-11-06T22:55:17.563Z,8.03
2018-11-06T22:57:46.922Z,7.90
2018-11-06T23:01:22.324Z,7.63
2018-11-06T23:03:52.583Z,7.93
2018-11-06T23:06:22.159Z,8.57
2018-11-06T23:08:51.384Z,8.07
2018-11-06T23:11:20.742Z,8.47
2018-11-06T23:13:50.065Z,8.63
2018-11-06T23:16:19.383Z,8.97
2018-11-06T23:18:48.723Z,9.37
2018-11-06T23:21:18.023Z,8.80
2018-11-06T23:23:47.403Z,9.07
2018-11-06T23:26:16.848Z,10.00
2018-11-06T23:28:46.163Z,9.73
2018-11-06T23:31:15.443Z,9.43
2018-11-06T23:33:45.003Z,10.23
2018-11-06T23:36:14.363Z,10.33
2018-11-06T23:38:43.743Z,9.60
2018-11-06T23:41:13.103Z,10.10
2018-11-06T23:43:42.523Z,10.47
2018-11-06T23:46:11.805Z,10.47
2018-11-06T23:48:41.087Z,10.57
2018-11-06T23:51:10.457Z,10.13
2018-11-06T23:53:40.099Z,10.20
2018-11-06T23:56:09.606Z,11.37
2018-11-06T23:58:38.997Z,11.70
